Time;durP1;ratioP1;P1;durP2;ratioP2;P2;SDS_P1;SDS_P2;PMS_P1;PMS_P2;Temp;Humidity;BMP_temperature;BMP_pressure;BME280_temperature;BME280_humidity;BME280_pressure;Samples;Min_cycle;Max_cycle;Signal;HPM_P1;HPM_P2
2022/04/06 00:00:52;;;;;;;9.23;5.90;;;10.20;99.90;;;;;;5035648;28;20216;-72
2022/04/06 00:03:18;;;;;;;7.60;4.73;;;10.20;99.90;;;;;;5029296;28;20513;-69
2022/04/06 00:05:44;;;;;;;8.93;5.67;;;10.20;99.90;;;;;;5027462;28;20291;-70
2022/04/06 00:08:10;;;;;;;9.20;5.50;;;10.20;99.90;;;;;;5025305;28;20228;-71
2022/04/06 00:10:36;;;;;;;7.37;5.10;;;10.20;99.90;;;;;;5015637;28;20451;-71
2022/04/06 00:13:02;;;;;;;6.67;4.57;;;10.20;99.90;;;;;;5032008;28;20450;-71
2022/04/06 00:15:29;;;;;;;9.33;5.37;;;10.20;99.90;;;;;;5029396;28;20846;-70
2022/04/06 00:17:55;;;;;;;8.20;5.13;;;10.20;99.90;;;;;;5041716;28;20555;-70
2022/04/06 00:20:21;;;;;;;6.60;4.43;;;10.20;99.90;;;;;;5025557;28;21031;-68
2022/04/06 00:22:47;;;;;;;7.20;5.00;;;10.20;99.90;;;;;;5031079;28;20224;-71
2022/04/06 00:25:12;;;;;;;8.60;5.43;;;10.20;99.90;;;;;;5030569;28;20512;-70
2022/04/06 00:27:38;;;;;;;6.90;5.33;;;10.20;99.90;;;;;;5020297;28;20220;-71
2022/04/06 00:30:05;;;;;;;7.30;4.77;;;10.20;99.90;;;;;;5012727;28;20217;-71
2022/04/06 00:32:31;;;;;;;9.03;5.37;;;10.20;99.90;;;;;;5049601;28;20219;-69
2022/04/06 00:37:41;;;;;;;7.20;5.70;;;10.20;99.90;;;;;;5035922;28;20485;-71
2022/04/06 00:40:10;;;;;;;10.53;6.10;;;10.20;99.90;;;;;;5038197;28;20955;-70
2022/04/06 00:42:36;;;;;;;6.57;4.83;;;10.20;99.90;;;;;;5015826;28;20264;-70
2022/04/06 00:45:02;;;;;;;7.50;5.23;;;10.20;99.90;;;;;;5037183;28;21002;-71
2022/04/06 00:47:28;;;;;;;7.67;5.57;;;10.20;99.90;;;;;;5032277;28;20708;-71
2022/04/06 00:49:54;;;;;;;9.27;5.30;;;10.20;99.90;;;;;;5024087;28;20483;-71
2022/04/06 00:52:20;;;;;;;10.50;6.77;;;10.20;99.90;;;;;;5031600;28;20212;-71
2022/04/06 00:54:47;;;;;;;9.80;6.13;;;10.20;99.90;;;;;;5048384;28;20231;-72
2022/04/06 00:57:13;;;;;;;8.70;5.63;;;10.20;99.90;;;;;;5034651;28;20447;-70
2022/04/06 00:59:41;;;;;;;10.17;6.40;;;10.20;99.90;;;;;;5023423;28;20467;-71
2022/04/06 01:02:07;;;;;;;10.27;6.53;;;10.20;99.90;;;;;;5035002;28;20534;-71
2022/04/06 01:04:33;;;;;;;8.40;5.90;;;10.20;99.90;;;;;;5025507;28;20482;-71
2022/04/06 01:06:59;;;;;;;7.00;5.43;;;10.20;99.90;;;;;;5021326;28;20454;-70
2022/04/06 01:09:27;;;;;;;8.17;6.20;;;10.20;99.90;;;;;;5044238;28;20498;-70
2022/04/06 01:11:53;;;;;;;7.60;5.93;;;10.20;99.90;;;;;;5032087;28;21017;-71
2022/04/06 01:14:19;;;;;;;8.07;5.50;;;10.20;99.90;;;;;;5030672;28;20513;-69
2022/04/06 01:17:03;;;;;;;7.90;5.30;;;10.20;99.90;;;;;;5030906;28;20217;-71
2022/04/06 01:19:34;;;;;;;9.70;6.23;;;10.20;99.90;;;;;;5017656;28;20481;-71
2022/04/06 01:22:01;;;;;;;8.00;5.50;;;10.20;99.90;;;;;;5025228;28;20467;-71
2022/04/06 01:24:27;;;;;;;10.10;5.07;;;10.20;99.90;;;;;;5016706;28;20498;-71
2022/04/06 01:26:53;;;;;;;7.37;5.33;;;10.20;99.90;;;;;;5041863;28;20458;-71
2022/04/06 01:29:19;;;;;;;10.00;5.90;;;10.20;99.90;;;;;;5034141;28;20454;-69
2022/04/06 01:31:46;;;;;;;10.10;5.80;;;10.20;99.90;;;;;;5034984;28;20458;-70
2022/04/06 01:34:11;;;;;;;7.37;5.47;;;10.20;99.90;;;;;;5016426;28;20243;-68
2022/04/06 01:36:37;;;;;;;5.47;4.07;;;10.20;99.90;;;;;;5030109;28;20463;-71
2022/04/06 01:39:03;;;;;;;7.50;4.73;;;10.20;99.90;;;;;;5028067;28;20228;-70
2022/04/06 01:41:32;;;;;;;8.40;5.20;;;10.30;99.90;;;;;;5028414;28;20307;-71
2022/04/06 01:43:58;;;;;;;9.67;4.87;;;10.20;99.90;;;;;;5041649;28;20215;-71
2022/04/06 01:46:24;;;;;;;6.60;5.00;;;10.30;99.90;;;;;;5010965;28;20475;-70
2022/04/06 01:54:22;;;;;;;8.90;4.43;;;10.30;99.90;;;;;;5027457;28;20545;-71
2022/04/06 01:56:49;;;;;;;7.27;4.70;;;10.30;99.90;;;;;;5026622;28;20459;-69
2022/04/06 01:59:14;;;;;;;7.13;5.10;;;10.20;99.90;;;;;;5044008;28;20522;-70
2022/04/06 02:01:40;;;;;;;7.33;4.60;;;10.20;99.90;;;;;;5026215;28;20511;-71
2022/04/06 02:04:14;;;;;;;7.87;4.83;;;10.20;99.90;;;;;;5036734;28;20234;-70
2022/04/06 02:06:40;;;;;;;8.90;4.80;;;10.20;99.90;;;;;;5016046;28;20217;-70
2022/04/06 02:09:05;;;;;;;7.77;4.77;;;10.20;99.90;;;;;;5032183;28;21495;-70
2022/04/06 02:11:31;;;;;;;6.73;5.20;;;10.20;99.90;;;;;;5011352;28;20585;-70
2022/04/06 02:13:57;;;;;;;8.57;5.87;;;10.20;99.90;;;;;;5030384;28;20262;-71
2022/04/06 02:16:23;;;;;;;6.50;4.80;;;10.20;99.90;;;;;;5038193;28;20258;-71
2022/04/06 02:18:50;;;;;;;9.53;5.60;;;10.20;99.90;;;;;;5028606;28;20440;-69
2022/04/06 02:21:15;;;;;;;6.50;5.07;;;10.20;99.90;;;;;;5029601;28;20442;-71
2022/04/06 02:23:41;;;;;;;8.63;4.60;;;10.20;99.90;;;;;;5030448;28;20817;-70
2022/04/06 02:26:07;;;;;;;7.60;4.40;;;10.20;99.90;;;;;;5049128;28;20228;-71
2022/04/06 02:28:33;;;;;;;8.33;5.03;;;10.20;99.90;;;;;;5015302;28;20224;-71
2022/04/06 02:30:58;;;;;;;8.87;5.73;;;10.10;99.90;;;;;;5028816;28;20217;-71
2022/04/06 02:33:24;;;;;;;7.63;4.67;;;10.10;99.90;;;;;;5029630;28;20220;-71
2022/04/06 02:35:51;;;;;;;9.80;5.50;;;10.10;99.90;;;;;;5031307;28;20232;-70
2022/04/06 02:38:17;;;;;;;6.07;5.03;;;10.10;99.90;;;;;;5027033;28;20463;-71
2022/04/06 02:40:42;;;;;;;6.53;4.90;;;10.10;99.90;;;;;;5031839;28;20452;-71
2022/04/06 02:43:08;;;;;;;9.60;5.17;;;10.10;99.90;;;;;;5036645;28;20219;-71
2022/04/06 02:45:34;;;;;;;6.80;5.13;;;10.10;99.90;;;;;;5025201;28;20245;-71
2022/04/06 02:48:00;;;;;;;7.50;4.90;;;10.10;99.90;;;;;;5038596;28;20216;-70
2022/04/06 02:50:25;;;;;;;9.43;5.33;;;10.10;99.90;;;;;;5062508;28;20212;-71
2022/04/06 02:52:52;;;;;;;5.83;4.50;;;10.10;99.90;;;;;;5016001;28;20715;-71
2022/04/06 02:55:18;;;;;;;11.23;5.57;;;10.10;99.90;;;;;;5014412;28;20509;-69
2022/04/06 02:57:44;;;;;;;6.60;4.93;;;10.10;99.90;;;;;;5024769;28;20226;-70
2022/04/06 03:00:10;;;;;;;8.70;5.33;;;10.10;99.90;;;;;;5045179;28;20228;-71
2022/04/06 03:02:36;;;;;;;7.27;5.10;;;10.10;99.90;;;;;;5031309;28;20220;-70
2022/04/06 03:05:02;;;;;;;7.67;4.57;;;10.10;99.90;;;;;;5015405;28;20509;-70
2022/04/06 03:07:27;;;;;;;6.87;5.03;;;10.10;99.90;;;;;;5030184;28;20773;-69
2022/04/06 03:09:53;;;;;;;8.70;4.30;;;10.10;99.90;;;;;;5032863;28;20255;-70
2022/04/06 03:12:19;;;;;;;4.73;4.20;;;10.10;99.90;;;;;;5033444;28;20219;-70
2022/04/06 03:14:44;;;;;;;4.67;3.87;;;10.20;99.90;;;;;;5030672;28;20219;-70
2022/04/06 03:17:10;;;;;;;7.60;5.00;;;10.20;99.90;;;;;;5026975;28;20219;-71
2022/04/06 03:19:35;;;;;;;7.57;5.00;;;10.20;99.90;;;;;;5021664;28;20262;-71
2022/04/06 03:22:02;;;;;;;8.67;4.30;;;10.20;99.90;;;;;;5014193;28;20232;-69
2022/04/06 03:24:28;;;;;;;6.77;4.13;;;10.20;99.90;;;;;;5039992;28;20213;-72
2022/04/06 03:26:54;;;;;;;7.37;4.67;;;10.20;99.90;;;;;;5042854;28;20454;-70
2022/04/06 03:29:19;;;;;;;9.00;4.13;;;10.20;99.90;;;;;;5012095;28;20243;-70
2022/04/06 03:31:45;;;;;;;6.87;5.03;;;10.20;99.90;;;;;;5028995;28;20220;-71
2022/04/06 03:34:11;;;;;;;6.63;4.27;;;10.20;99.90;;;;;;5044077;28;20216;-69
2022/04/06 03:36:36;;;;;;;8.80;4.17;;;10.20;99.90;;;;;;5029138;28;20212;-71
2022/04/06 03:39:02;;;;;;;7.53;4.17;;;10.20;99.90;;;;;;5012780;28;20227;-70
2022/04/06 03:41:28;;;;;;;8.27;5.40;;;10.20;99.90;;;;;;5042860;28;20250;-70
2022/04/06 03:43:53;;;;;;;8.10;5.33;;;10.20;99.90;;;;;;5029445;28;20240;-70
2022/04/06 03:46:19;;;;;;;7.37;5.27;;;10.20;99.90;;;;;;5035479;28;20578;-69
2022/04/06 03:48:45;;;;;;;5.87;3.57;;;10.20;99.90;;;;;;5047863;28;20224;-70
2022/04/06 03:51:10;;;;;;;6.60;4.50;;;10.20;99.90;;;;;;5036736;28;20826;-69
2022/04/06 03:53:36;;;;;;;8.13;4.70;;;10.10;99.90;;;;;;5047646;28;20220;-69
2022/04/06 03:56:02;;;;;;;8.93;4.73;;;10.20;99.90;;;;;;5039311;28;20232;-70
2022/04/06 03:58:29;;;;;;;5.50;3.77;;;10.20;99.90;;;;;;5009113;28;20644;-71
2022/04/06 04:00:54;;;;;;;5.93;3.77;;;10.20;99.90;;;;;;5039144;28;20213;-71
2022/04/06 04:03:20;;;;;;;4.20;3.13;;;10.20;99.90;;;;;;5028273;28;21007;-71
2022/04/06 04:05:46;;;;;;;6.30;3.97;;;10.20;99.90;;;;;;5023645;28;20219;-71
2022/04/06 04:08:11;;;;;;;9.63;3.10;;;10.10;99.90;;;;;;5030880;28;20719;-69
2022/04/06 04:10:37;;;;;;;5.17;3.53;;;10.10;99.90;;;;;;5035149;28;20247;-71
2022/04/06 04:13:03;;;;;;;7.90;4.23;;;10.10;99.90;;;;;;5033513;28;20212;-69
2022/04/06 04:15:31;;;;;;;8.83;3.70;;;10.10;99.90;;;;;;5045634;28;20715;-70
2022/04/06 04:17:57;;;;;;;6.27;4.17;;;10.10;99.90;;;;;;5033866;28;20216;-71
2022/04/06 04:20:23;;;;;;;6.83;4.17;;;10.10;99.90;;;;;;5031392;28;20490;-71
2022/04/06 04:22:48;;;;;;;5.40;4.20;;;10.10;99.90;;;;;;5031154;28;20499;-70
2022/04/06 04:25:14;;;;;;;6.37;4.50;;;10.10;99.90;;;;;;5030946;28;20236;-71
2022/04/06 04:27:40;;;;;;;4.40;3.50;;;10.10;99.90;;;;;;5032992;28;20316;-70
2022/04/06 04:30:07;;;;;;;9.50;4.63;;;10.00;99.90;;;;;;5014644;28;20229;-71
2022/04/06 04:32:33;;;;;;;4.40;3.73;;;10.00;99.90;;;;;;5014162;28;20225;-71
2022/04/06 04:35:00;;;;;;;7.13;3.90;;;10.00;99.90;;;;;;5036828;28;20508;-71
2022/04/06 04:37:26;;;;;;;5.00;3.13;;;10.10;99.90;;;;;;5023884;28;20231;-70
2022/04/06 04:39:52;;;;;;;7.10;2.93;;;10.10;99.90;;;;;;5015314;28;20467;-71
2022/04/06 04:42:18;;;;;;;5.57;4.43;;;10.10;99.90;;;;;;5027556;28;20464;-70
2022/04/06 04:44:44;;;;;;;9.03;3.93;;;10.00;99.90;;;;;;5063943;28;20462;-71
2022/04/06 04:47:09;;;;;;;5.77;4.20;;;10.00;99.90;;;;;;5011799;28;20457;-71
2022/04/06 04:49:35;;;;;;;8.70;4.30;;;10.00;99.90;;;;;;5037077;28;20308;-71
2022/04/06 04:52:01;;;;;;;5.47;3.50;;;10.00;99.90;;;;;;5013288;28;20211;-70
2022/04/06 04:54:27;;;;;;;4.97;3.13;;;10.00;99.90;;;;;;5050964;28;20636;-70
2022/04/06 04:56:52;;;;;;;8.20;4.27;;;9.90;99.90;;;;;;5032041;28;20243;-71
2022/04/06 04:59:19;;;;;;;5.17;3.70;;;9.90;99.90;;;;;;5043119;28;20223;-69
2022/04/06 05:01:45;;;;;;;8.00;3.93;;;9.90;99.90;;;;;;5026002;28;20224;-70
2022/04/06 05:04:10;;;;;;;11.20;4.20;;;9.80;99.90;;;;;;5026929;28;20439;-69
2022/04/06 05:06:37;;;;;;;11.33;4.57;;;9.80;99.90;;;;;;5046661;28;20693;-71
2022/04/06 05:09:03;;;;;;;6.43;3.30;;;9.80;99.90;;;;;;5031435;28;20270;-70
2022/04/06 05:11:29;;;;;;;8.33;3.80;;;9.80;99.90;;;;;;5030065;28;20970;-70
2022/04/06 05:13:54;;;;;;;5.20;3.23;;;9.70;99.90;;;;;;5028468;28;20216;-70
2022/04/06 05:16:20;;;;;;;6.20;4.20;;;9.70;99.90;;;;;;5029655;28;20291;-67
2022/04/06 05:18:46;;;;;;;7.83;3.90;;;9.70;99.90;;;;;;5030434;28;20228;-71
2022/04/06 05:21:12;;;;;;;5.43;2.77;;;9.70;99.90;;;;;;5028041;28;20232;-69
2022/04/06 05:23:37;;;;;;;6.17;3.73;;;9.60;99.90;;;;;;5037461;28;20238;-71
2022/04/06 05:26:03;;;;;;;7.47;4.10;;;9.60;99.90;;;;;;5019051;28;20460;-71
2022/04/06 05:28:30;;;;;;;5.03;3.17;;;9.60;99.90;;;;;;5008201;28;20225;-69
2022/04/06 05:30:56;;;;;;;8.23;4.13;;;9.60;99.90;;;;;;5001353;28;20452;-70
2022/04/06 05:33:21;;;;;;;12.70;4.10;;;9.60;99.90;;;;;;5048038;28;20450;-70
2022/04/06 05:35:47;;;;;;;10.60;3.60;;;9.60;99.90;;;;;;5032141;28;20459;-71
2022/04/06 05:38:14;;;;;;;6.87;4.00;;;9.60;99.90;;;;;;5014032;28;20225;-71
2022/04/06 05:40:39;;;;;;;4.90;2.80;;;9.60;99.90;;;;;;5031846;28;20464;-71
2022/04/06 05:43:05;;;;;;;6.73;4.07;;;9.60;99.90;;;;;;5032601;28;20532;-70
2022/04/06 05:45:31;;;;;;;6.10;3.83;;;9.60;99.90;;;;;;5032123;28;20277;-71
2022/04/06 05:47:58;;;;;;;6.20;3.70;;;9.60;99.90;;;;;;5033452;28;20523;-72
2022/04/06 05:50:23;;;;;;;4.33;3.13;;;9.60;99.90;;;;;;5015809;28;20221;-72
2022/04/06 05:52:49;;;;;;;6.43;3.17;;;9.60;99.90;;;;;;5016730;28;20466;-71
2022/04/06 05:55:15;;;;;;;5.03;3.53;;;9.60;99.90;;;;;;5050831;28;20236;-71
2022/04/06 05:57:41;;;;;;;5.80;3.27;;;9.60;99.90;;;;;;5042391;28;20251;-70
2022/04/06 06:00:08;;;;;;;5.13;3.77;;;9.60;99.90;;;;;;5033899;28;20722;-71
2022/04/06 06:02:43;;;;;;;10.83;3.20;;;9.60;99.90;;;;;;5031462;28;20239;-72
2022/04/06 06:05:09;;;;;;;6.00;3.33;;;9.60;99.90;;;;;;5028862;28;20440;-70
2022/04/06 06:07:35;;;;;;;6.53;3.13;;;9.60;99.90;;;;;;5014558;28;20460;-71
2022/04/06 06:10:02;;;;;;;8.20;2.97;;;9.60;99.90;;;;;;5018016;28;20224;-71
2022/04/06 06:12:29;;;;;;;5.20;3.20;;;9.60;99.90;;;;;;5033770;28;20243;-71
2022/04/06 06:14:54;;;;;;;3.50;2.87;;;9.60;99.90;;;;;;5053317;28;20478;-71
2022/04/06 06:17:20;;;;;;;7.83;3.30;;;9.60;99.90;;;;;;5020301;28;20454;-71
2022/04/06 06:19:46;;;;;;;3.50;3.00;;;9.60;99.90;;;;;;5024101;28;20239;-71
2022/04/06 06:22:11;;;;;;;4.73;3.30;;;9.60;99.90;;;;;;5023177;28;20231;-70
2022/04/06 06:24:37;;;;;;;7.47;3.27;;;9.60;99.90;;;;;;5032006;28;20220;-71
2022/04/06 06:27:04;;;;;;;7.57;3.43;;;9.60;99.90;;;;;;5014898;28;20224;-71
2022/04/06 06:29:31;;;;;;;4.20;3.23;;;9.60;99.90;;;;;;5032891;28;20243;-71
2022/04/06 06:31:57;;;;;;;8.10;3.63;;;9.60;99.90;;;;;;5031039;28;21001;-71
2022/04/06 06:34:22;;;;;;;4.30;2.93;;;9.60;99.90;;;;;;5017248;28;20469;-71
2022/04/06 06:36:48;;;;;;;12.47;3.53;;;9.60;99.90;;;;;;5020275;28;20240;-69
2022/04/06 06:39:14;;;;;;;8.90;3.20;;;9.60;99.90;;;;;;5016366;28;20235;-71
2022/04/06 06:41:42;;;;;;;2.90;2.70;;;9.60;99.90;;;;;;5031045;28;20216;-71
2022/04/06 06:44:08;;;;;;;5.43;3.10;;;9.60;99.90;;;;;;5033661;28;20447;-71
2022/04/06 06:46:34;;;;;;;4.20;2.50;;;9.60;99.90;;;;;;5037467;28;20458;-72
2022/04/06 06:49:03;;;;;;;3.50;3.20;;;9.70;99.90;;;;;;5031155;28;20911;-71
2022/04/06 06:51:30;;;;;;;5.30;3.33;;;9.70;99.90;;;;;;5030590;28;20217;-72
2022/04/06 06:53:57;;;;;;;6.77;4.07;;;9.70;99.90;;;;;;5016984;28;20556;-71
2022/04/06 06:56:23;;;;;;;5.13;2.80;;;9.70;99.90;;;;;;5027638;28;20460;-70
2022/04/06 06:58:49;;;;;;;4.07;3.10;;;9.70;99.90;;;;;;5028731;28;20451;-71
2022/04/06 07:01:15;;;;;;;6.20;3.17;;;9.80;99.90;;;;;;5034020;28;20454;-71
2022/04/06 07:03:40;;;;;;;6.00;4.10;;;9.80;99.90;;;;;;5033460;28;20219;-71
2022/04/06 07:06:06;;;;;;;7.80;3.40;;;9.80;99.90;;;;;;5030470;28;20299;-71
2022/04/06 07:08:32;;;;;;;7.60;3.47;;;9.80;99.90;;;;;;5034233;28;20217;-72
2022/04/06 07:10:57;;;;;;;6.33;4.27;;;9.80;99.90;;;;;;5035690;28;20227;-68
2022/04/06 07:13:24;;;;;;;11.83;3.87;;;9.90;99.90;;;;;;5026698;28;20679;-71
2022/04/06 07:15:49;;;;;;;5.80;3.57;;;9.90;99.90;;;;;;5020065;28;20688;-72
2022/04/06 07:18:17;;;;;;;8.13;4.00;;;9.90;99.90;;;;;;5021278;28;20461;-69
2022/04/06 07:20:43;;;;;;;6.40;3.87;;;10.00;99.90;;;;;;5019406;28;20224;-71
2022/04/06 07:23:09;;;;;;;6.90;3.83;;;10.00;99.90;;;;;;5011440;28;20475;-71
2022/04/06 07:25:35;;;;;;;6.90;3.80;;;10.00;99.90;;;;;;5008433;28;20308;-71
2022/04/06 07:28:02;;;;;;;5.90;3.30;;;10.00;99.90;;;;;;5009683;28;20636;-71
2022/04/06 07:30:28;;;;;;;4.63;3.77;;;10.00;99.90;;;;;;5014142;28;20239;-71
2022/04/06 07:32:54;;;;;;;5.43;3.47;;;10.10;99.90;;;;;;5016809;28;20455;-72
2022/04/06 07:35:20;;;;;;;5.70;3.90;;;10.10;99.90;;;;;;5035059;28;20519;-68
2022/04/06 07:37:47;;;;;;;5.70;3.60;;;10.10;99.90;;;;;;5014040;28;20224;-69
2022/04/06 07:40:15;;;;;;;8.00;3.70;;;10.10;99.90;;;;;;5038417;28;20216;-71
2022/04/06 07:42:41;;;;;;;7.30;3.83;;;10.10;99.90;;;;;;5039469;28;20458;-71
2022/04/06 07:45:09;;;;;;;5.30;3.10;;;10.10;99.90;;;;;;5035950;28;20474;-72
2022/04/06 07:47:37;;;;;;;7.40;3.83;;;10.10;99.90;;;;;;5018385;28;20454;-71
2022/04/06 07:50:04;;;;;;;5.87;3.20;;;10.20;99.90;;;;;;5046063;28;20457;-71
2022/04/06 07:52:30;;;;;;;4.80;3.57;;;10.20;99.90;;;;;;5028708;28;20905;-71
2022/04/06 07:54:57;;;;;;;7.10;3.67;;;10.20;99.90;;;;;;5043827;28;20569;-71
2022/04/06 07:57:26;;;;;;;3.73;2.90;;;10.20;99.90;;;;;;5039406;28;20535;-70
2022/04/06 07:59:54;;;;;;;10.33;3.23;;;10.30;99.90;;;;;;5035465;28;20467;-71
2022/04/06 08:02:20;;;;;;;12.53;3.40;;;10.30;99.90;;;;;;5032337;28;20463;-72
2022/04/06 08:04:45;;;;;;;4.03;3.50;;;10.30;99.90;;;;;;5021985;28;20465;-71
2022/04/06 08:07:12;;;;;;;4.20;3.20;;;10.30;99.90;;;;;;5032348;28;20467;-69
2022/04/06 08:09:38;;;;;;;4.77;3.47;;;10.30;99.90;;;;;;5033498;28;20221;-72
2022/04/06 08:12:04;;;;;;;7.33;5.70;;;10.30;99.90;;;;;;5031504;28;20450;-71
2022/04/06 08:14:30;;;;;;;10.87;4.33;;;10.40;99.90;;;;;;5033895;28;20447;-70
2022/04/06 08:16:56;;;;;;;15.03;5.67;;;10.40;99.90;;;;;;5011841;28;20514;-72
2022/04/06 08:19:23;;;;;;;8.70;4.43;;;10.40;99.90;;;;;;5029605;28;20889;-71
2022/04/06 08:21:50;;;;;;;11.40;5.60;;;10.40;99.90;;;;;;5021291;28;20455;-70
2022/04/06 08:24:16;;;;;;;14.63;8.40;;;10.40;99.90;;;;;;5028326;28;20450;-69
2022/04/06 08:26:42;;;;;;;12.43;7.47;;;10.40;99.90;;;;;;5025945;28;20501;-71
2022/04/06 08:29:08;;;;;;;11.93;5.87;;;10.50;99.90;;;;;;5041651;28;20224;-70
2022/04/06 08:31:34;;;;;;;18.00;9.07;;;10.50;99.90;;;;;;5040960;28;20220;-71
2022/04/06 08:34:00;;;;;;;21.20;8.00;;;10.50;99.90;;;;;;5041254;28;20467;-71
2022/04/06 08:36:25;;;;;;;14.00;8.90;;;10.60;99.90;;;;;;5037210;28;20216;-71
2022/04/06 08:38:51;;;;;;;21.60;8.07;;;10.60;99.90;;;;;;5034701;28;20558;-71
2022/04/06 08:41:20;;;;;;;10.33;5.57;;;10.60;99.90;;;;;;5023676;28;20287;-71
2022/04/06 08:43:46;;;;;;;6.77;5.00;;;10.70;99.90;;;;;;5031442;28;20232;-71
2022/04/06 08:46:12;;;;;;;9.07;5.80;;;10.70;99.90;;;;;;5030698;28;20447;-71
2022/04/06 08:48:38;;;;;;;12.17;6.37;;;10.70;99.90;;;;;;5033631;28;20464;-71
2022/04/06 08:51:09;;;;;;;6.17;4.27;;;10.70;99.90;;;;;;5047987;28;21012;-71
2022/04/06 08:53:39;;;;;;;4.07;3.30;;;10.80;99.90;;;;;;5032609;28;20462;-70
2022/04/06 08:56:06;;;;;;;6.87;4.90;;;10.80;99.90;;;;;;5004953;28;20451;-71
2022/04/06 08:58:32;;;;;;;19.37;12.83;;;10.90;99.90;;;;;;5028599;28;20527;-71
2022/04/06 09:00:58;;;;;;;18.30;11.47;;;10.90;99.90;;;;;;5024848;28;20468;-70
2022/04/06 09:03:24;;;;;;;21.07;13.90;;;10.90;99.90;;;;;;5014142;28;20602;-71
2022/04/06 09:06:01;;;;;;;20.33;14.13;;;11.00;99.90;;;;;;5003601;28;20231;-71
2022/04/06 09:08:43;;;;;;;44.53;28.83;;;11.00;99.90;;;;;;5025975;28;20448;-71
2022/04/06 09:11:17;;;;;;;29.23;21.60;;;11.10;99.90;;;;;;5023032;28;20446;-71
2022/04/06 09:13:44;;;;;;;20.10;14.13;;;11.10;99.90;;;;;;5051195;28;20511;-71
2022/04/06 09:16:12;;;;;;;19.50;15.20;;;11.20;99.90;;;;;;5022705;28;20472;-70
2022/04/06 09:18:40;;;;;;;13.40;9.40;;;11.20;99.90;;;;;;5022068;28;20827;-71
2022/04/06 09:21:09;;;;;;;5.67;4.60;;;11.30;99.90;;;;;;5027302;28;20479;-71
2022/04/06 09:23:36;;;;;;;10.10;5.77;;;11.30;99.90;;;;;;5043876;28;20479;-69
2022/04/06 09:26:03;;;;;;;6.10;4.10;;;11.30;99.90;;;;;;5034138;28;20451;-71
2022/04/06 09:28:29;;;;;;;4.20;3.23;;;11.40;99.90;;;;;;5042765;28;20458;-70
2022/04/06 09:30:55;;;;;;;3.77;3.30;;;11.40;99.90;;;;;;5041979;28;20502;-70
2022/04/06 09:33:23;;;;;;;4.13;3.43;;;11.50;99.90;;;;;;5015408;28;20548;-71
2022/04/06 09:35:49;;;;;;;8.70;3.73;;;11.40;99.90;;;;;;5014041;28;20285;-70
2022/04/06 09:38:27;;;;;;;6.13;3.63;;;11.40;99.90;;;;;;5045165;28;20458;-70
2022/04/06 09:41:06;;;;;;;4.70;3.97;;;11.40;99.90;;;;;;5012628;28;20598;-72
2022/04/06 09:43:33;;;;;;;4.37;3.60;;;11.40;99.90;;;;;;5032983;28;20478;-69
2022/04/06 09:49:20;;;;;;;4.13;3.20;;;11.50;99.90;;;;;;5040857;28;20536;-70
2022/04/06 09:51:50;;;;;;;6.50;3.80;;;11.50;99.90;;;;;;5026905;28;20623;-70
2022/04/06 09:54:17;;;;;;;6.20;3.17;;;11.50;99.90;;;;;;5032357;28;20448;-71
2022/04/06 09:56:44;;;;;;;5.20;3.97;;;11.50;99.90;;;;;;5032808;28;20459;-70
2022/04/06 09:59:11;;;;;;;7.07;3.90;;;11.50;99.90;;;;;;5052610;28;20455;-71
2022/04/06 10:01:41;;;;;;;9.83;3.77;;;11.60;99.90;;;;;;5041817;28;20464;-72
2022/04/06 10:04:12;;;;;;;5.13;4.20;;;11.60;99.90;;;;;;5023357;28;20475;-71
2022/04/06 10:06:39;;;;;;;5.40;3.80;;;11.60;99.90;;;;;;5022250;28;20606;-71
2022/04/06 10:09:08;;;;;;;7.53;4.70;;;11.70;99.90;;;;;;5033231;28;20445;-71
2022/04/06 10:11:36;;;;;;;9.27;3.83;;;11.70;99.90;;;;;;5017448;28;20493;-71
2022/04/06 10:14:04;;;;;;;6.20;3.93;;;11.80;99.90;;;;;;5031583;28;20526;-70
2022/04/06 10:16:38;;;;;;;5.57;3.30;;;11.90;99.90;;;;;;5040110;28;20451;-71
2022/04/06 10:19:06;;;;;;;5.33;4.33;;;12.00;99.90;;;;;;5014245;28;20546;-70
2022/04/06 10:21:59;;;;;;;6.20;3.93;;;12.00;99.90;;;;;;5016746;28;20545;-70
2022/04/06 10:24:29;;;;;;;7.13;4.10;;;12.10;99.90;;;;;;5026767;28;20488;-70
2022/04/06 10:26:57;;;;;;;4.43;3.57;;;12.20;99.90;;;;;;5036235;28;20443;-71
2022/04/06 10:29:23;;;;;;;7.80;3.30;;;12.20;99.90;;;;;;5040246;28;20443;-71
2022/04/06 10:31:48;;;;;;;6.20;4.10;;;12.20;99.90;;;;;;5024754;28;20824;-72
2022/04/06 10:34:28;;;;;;;10.47;8.00;;;12.20;99.90;;;;;;5010013;28;20217;-71
2022/04/06 10:37:15;;;;;;;13.43;8.80;;;12.30;99.90;;;;;;5028578;28;20228;-70
2022/04/06 10:39:50;;;;;;;12.50;8.93;;;12.20;99.90;;;;;;5031074;28;20508;-71
2022/04/06 10:42:27;;;;;;;10.50;6.57;;;12.30;99.90;;;;;;5029052;28;20457;-71
2022/04/06 10:44:53;;;;;;;5.13;3.97;;;12.30;99.90;;;;;;5036053;28;20553;-72
2022/04/06 10:47:22;;;;;;;5.10;4.30;;;12.40;99.90;;;;;;5035390;28;21040;-71
2022/04/06 10:50:06;;;;;;;11.60;5.80;;;12.40;99.90;;;;;;5031519;28;20231;-71
2022/04/06 10:52:32;;;;;;;8.57;5.90;;;12.40;99.90;;;;;;5037555;28;20451;-70
2022/04/06 10:55:08;;;;;;;6.27;4.97;;;12.50;99.90;;;;;;5024595;28;20471;-71
2022/04/06 10:58:00;;;;;;;8.83;6.27;;;12.50;99.90;;;;;;5024100;28;20224;-71
2022/04/06 11:00:27;;;;;;;9.30;4.77;;;12.50;99.90;;;;;;5032132;28;20458;-70
2022/04/06 11:02:53;;;;;;;4.97;3.87;;;12.50;99.90;;;;;;5030072;28;20686;-71
2022/04/06 11:05:49;;;;;;;6.50;4.63;;;12.50;99.90;;;;;;5027796;28;20471;-70
2022/04/06 11:11:45;;;;;;;14.83;8.93;;;12.60;99.90;;;;;;5037442;28;20456;-71
2022/04/06 11:14:12;;;;;;;30.60;17.60;;;12.60;99.90;;;;;;5005350;28;20452;-71
2022/04/06 11:16:43;;;;;;;27.63;17.77;;;12.70;99.90;;;;;;5033675;28;20551;-71
2022/04/06 11:19:09;;;;;;;16.13;9.73;;;12.70;99.90;;;;;;5022246;28;20457;-71
2022/04/06 11:21:35;;;;;;;14.87;10.20;;;12.80;99.90;;;;;;5031492;28;20451;-72
2022/04/06 11:24:00;;;;;;;8.03;6.60;;;12.90;99.90;;;;;;5030876;28;20225;-72
2022/04/06 11:26:26;;;;;;;9.20;7.03;;;13.00;99.90;;;;;;5027636;28;21013;-72
2022/04/06 11:28:59;;;;;;;11.50;9.13;;;13.10;99.90;;;;;;5024046;28;20559;-71
2022/04/06 11:31:25;;;;;;;9.03;5.80;;;13.10;99.90;;;;;;5040410;28;20303;-71
2022/04/06 11:33:51;;;;;;;12.77;7.20;;;13.30;99.90;;;;;;5018727;28;20455;-69
2022/04/06 11:36:18;;;;;;;6.30;4.70;;;13.50;99.90;;;;;;5038420;28;21028;-69
2022/04/06 11:38:51;;;;;;;2.87;2.60;;;13.60;99.90;;;;;;5037862;28;20216;-69
2022/04/06 11:41:18;;;;;;;5.07;4.30;;;13.60;99.90;;;;;;5034746;28;21031;-69
2022/04/06 11:43:44;;;;;;;6.00;2.70;;;13.70;99.90;;;;;;5032519;28;20460;-69
2022/04/06 11:46:10;;;;;;;3.30;2.90;;;13.70;99.90;;;;;;5031504;28;20955;-69
2022/04/06 11:48:40;;;;;;;3.53;2.60;;;13.80;99.90;;;;;;5046475;28;20458;-70
2022/04/06 11:51:06;;;;;;;2.00;1.80;;;13.80;99.90;;;;;;5002187;28;20227;-69
2022/04/06 11:53:31;;;;;;;1.30;1.20;;;13.80;99.90;;;;;;5020869;28;20450;-67
2022/04/06 11:56:00;;;;;;;1.80;1.70;;;13.80;99.90;;;;;;5034195;28;20224;-70
2022/04/06 11:58:36;;;;;;;3.23;2.50;;;13.80;99.90;;;;;;5027591;28;20266;-67
2022/04/06 12:01:10;;;;;;;5.90;2.00;;;13.90;99.90;;;;;;5024701;28;20463;-69
2022/04/06 12:03:41;;;;;;;4.47;1.40;;;13.90;99.90;;;;;;5029261;28;20499;-69
2022/04/06 12:06:12;;;;;;;1.97;1.77;;;14.00;99.90;;;;;;5032674;28;20459;-69
2022/04/06 12:08:40;;;;;;;4.10;1.90;;;14.10;99.90;;;;;;5006190;28;20456;-70
2022/04/06 12:11:06;;;;;;;5.63;1.87;;;14.10;99.90;;;;;;5004372;28;20467;-69
2022/04/06 12:13:35;;;;;;;4.57;2.30;;;14.00;99.90;;;;;;5022170;28;20457;-67
2022/04/06 12:16:02;;;;;;;2.97;1.87;;;14.10;99.90;;;;;;5020746;28;20962;-69
2022/04/06 12:18:29;;;;;;;7.53;4.60;;;14.10;99.90;;;;;;5030733;28;20464;-69
2022/04/06 12:20:56;;;;;;;7.40;4.13;;;14.10;99.90;;;;;;5019570;28;20467;-69
2022/04/06 12:23:26;;;;;;;10.90;6.20;;;14.10;99.90;;;;;;5032027;28;20521;-70
2022/04/06 12:25:54;;;;;;;11.00;7.10;;;14.10;99.90;;;;;;5011527;28;20547;-69
2022/04/06 12:28:25;;;;;;;16.80;11.13;;;14.10;99.70;;;;;;5036494;28;20544;-69
2022/04/06 12:31:05;;;;;;;11.87;9.70;;;14.10;99.90;;;;;;5029406;28;20433;-69
2022/04/06 12:33:42;;;;;;;7.13;4.33;;;14.00;99.90;;;;;;5016078;28;20455;-66
2022/04/06 12:36:08;;;;;;;5.70;3.97;;;14.10;99.90;;;;;;5049254;28;20465;-70
2022/04/06 12:38:35;;;;;;;5.73;5.20;;;14.20;99.90;;;;;;5046011;28;20997;-68
2022/04/06 12:41:04;;;;;;;4.30;3.77;;;14.30;99.70;;;;;;5026123;28;20212;-69
2022/04/06 12:43:30;;;;;;;3.47;2.27;;;14.30;99.10;;;;;;5018821;28;20533;-69
2022/04/06 12:45:55;;;;;;;3.57;1.80;;;14.40;99.20;;;;;;5045335;28;20589;-69
2022/04/06 12:48:21;;;;;;;6.57;1.63;;;14.30;99.00;;;;;;5037884;28;20232;-69
2022/04/06 12:50:47;;;;;;;2.80;1.50;;;14.30;98.80;;;;;;5025700;28;20216;-69
2022/04/06 12:53:14;;;;;;;1.50;1.40;;;14.30;98.90;;;;;;5027929;28;20223;-70
2022/04/06 12:55:41;;;;;;;1.60;1.50;;;14.30;98.80;;;;;;5031160;28;20238;-69
2022/04/06 12:58:21;;;;;;;2.67;1.80;;;14.30;98.80;;;;;;5038873;28;20468;-69
2022/04/06 13:00:57;;;;;;;2.67;1.90;;;14.40;99.00;;;;;;5036402;28;20566;-70